<?xml version="1.0" encoding="UTF-8" ?>
<gpx version="1.1" xmlns:xsi="http://www.w3.org/2001/XMLSchema-instance" 
    xmlns="http://www.topografix.com/GPX/1/1" 
    xsi:schemaLocation="http://www.topografix.com/GPX/1/1 http://www.topografix.com/GPX/1/1/gpx.xsd" 
    creator="Openrunner - https://www.openrunner.com" >	<trk>
						<name>parcours rando trail IMP AD-20638352</name>
						<trkseg>
					<trkpt lat="45.705140" lon="3.056600">
						<ele>715</ele>
						<time>2025-03-17T12:37:38Z</time>
					</trkpt>
					<trkpt lat="45.705130" lon="3.056560">
						<ele>715</ele>
						<time>2025-03-17T12:37:42Z</time>
					</trkpt>
					<trkpt lat="45.705100" lon="3.056430">
						<ele>716</ele>
						<time>2025-03-17T12:37:55Z</time>
					</trkpt>
					<trkpt lat="45.705060" lon="3.056290">
						<ele>716</ele>
						<time>2025-03-17T12:38:09Z</time>
					</trkpt>
					<trkpt lat="45.705000" lon="3.055820">
						<ele>718</ele>
						<time>2025-03-17T12:38:53Z</time>
					</trkpt>
					<trkpt lat="45.705040" lon="3.055480">
						<ele>721</ele>
						<time>2025-03-17T12:39:25Z</time>
					</trkpt>
					<trkpt lat="45.705080" lon="3.055320">
						<ele>722</ele>
						<time>2025-03-17T12:39:41Z</time>
					</trkpt>
					<trkpt lat="45.705180" lon="3.055210">
						<ele>724</ele>
						<time>2025-03-17T12:39:58Z</time>
					</trkpt>
					<trkpt lat="45.704940" lon="3.055250">
						<ele>723</ele>
						<time>2025-03-17T12:40:30Z</time>
					</trkpt>
					<trkpt lat="45.704920" lon="3.055530">
						<ele>720</ele>
						<time>2025-03-17T12:40:57Z</time>
					</trkpt>
					<trkpt lat="45.704810" lon="3.055690">
						<ele>719</ele>
						<time>2025-03-17T12:41:18Z</time>
					</trkpt>
					<trkpt lat="45.704660" lon="3.055710">
						<ele>719</ele>
						<time>2025-03-17T12:41:38Z</time>
					</trkpt>
					<trkpt lat="45.704310" lon="3.055770">
						<ele>718</ele>
						<time>2025-03-17T12:42:25Z</time>
					</trkpt>
					<trkpt lat="45.704140" lon="3.055840">
						<ele>717</ele>
						<time>2025-03-17T12:42:48Z</time>
					</trkpt>
					<trkpt lat="45.703990" lon="3.055950">
						<ele>718</ele>
						<time>2025-03-17T12:43:11Z</time>
					</trkpt>
					<trkpt lat="45.703390" lon="3.056390">
						<ele>717</ele>
						<time>2025-03-17T12:44:41Z</time>
					</trkpt>
					<trkpt lat="45.703330" lon="3.056440">
						<ele>717</ele>
						<time>2025-03-17T12:44:50Z</time>
					</trkpt>
					<trkpt lat="45.703120" lon="3.056510">
						<ele>716</ele>
						<time>2025-03-17T12:45:19Z</time>
					</trkpt>
					<trkpt lat="45.702900" lon="3.056580">
						<ele>715</ele>
						<time>2025-03-17T12:45:49Z</time>
					</trkpt>
					<trkpt lat="45.702760" lon="3.056600">
						<ele>715</ele>
						<time>2025-03-17T12:46:08Z</time>
					</trkpt>
					<trkpt lat="45.702400" lon="3.056670">
						<ele>713</ele>
						<time>2025-03-17T12:46:56Z</time>
					</trkpt>
					<trkpt lat="45.701970" lon="3.056650">
						<ele>712</ele>
						<time>2025-03-17T12:47:54Z</time>
					</trkpt>
					<trkpt lat="45.701890" lon="3.056620">
						<ele>711</ele>
						<time>2025-03-17T12:48:05Z</time>
					</trkpt>
					<trkpt lat="45.701830" lon="3.056600">
						<ele>711</ele>
						<time>2025-03-17T12:48:13Z</time>
					</trkpt>
					<trkpt lat="45.701800" lon="3.056570">
						<ele>711</ele>
						<time>2025-03-17T12:48:18Z</time>
					</trkpt>
					<trkpt lat="45.701610" lon="3.056410">
						<ele>711</ele>
						<time>2025-03-17T12:48:47Z</time>
					</trkpt>
					<trkpt lat="45.701440" lon="3.056510">
						<ele>709</ele>
						<time>2025-03-17T12:49:12Z</time>
					</trkpt>
					<trkpt lat="45.700880" lon="3.056940">
						<ele>706</ele>
						<time>2025-03-17T12:50:36Z</time>
					</trkpt>
					<trkpt lat="45.700690" lon="3.057090">
						<ele>704</ele>
						<time>2025-03-17T12:51:05Z</time>
					</trkpt>
					<trkpt lat="45.700260" lon="3.057340">
						<ele>701</ele>
						<time>2025-03-17T12:52:07Z</time>
					</trkpt>
					<trkpt lat="45.700130" lon="3.057400">
						<ele>700</ele>
						<time>2025-03-17T12:52:26Z</time>
					</trkpt>
					<trkpt lat="45.700050" lon="3.057490">
						<ele>700</ele>
						<time>2025-03-17T12:52:39Z</time>
					</trkpt>
					<trkpt lat="45.699880" lon="3.057940">
						<ele>700</ele>
						<time>2025-03-17T12:53:27Z</time>
					</trkpt>
					<trkpt lat="45.699560" lon="3.058660">
						<ele>696</ele>
						<time>2025-03-17T12:54:46Z</time>
					</trkpt>
					<trkpt lat="45.699450" lon="3.058920">
						<ele>694</ele>
						<time>2025-03-17T12:55:15Z</time>
					</trkpt>
					<trkpt lat="45.699350" lon="3.059090">
						<ele>693</ele>
						<time>2025-03-17T12:55:35Z</time>
					</trkpt>
					<trkpt lat="45.699170" lon="3.059300">
						<ele>692</ele>
						<time>2025-03-17T12:56:06Z</time>
					</trkpt>
					<trkpt lat="45.698800" lon="3.059680">
						<ele>689</ele>
						<time>2025-03-17T12:57:07Z</time>
					</trkpt>
					<trkpt lat="45.698550" lon="3.060000">
						<ele>687</ele>
						<time>2025-03-17T12:57:52Z</time>
					</trkpt>
					<trkpt lat="45.698460" lon="3.060240">
						<ele>685</ele>
						<time>2025-03-17T12:58:17Z</time>
					</trkpt>
					<trkpt lat="45.698390" lon="3.060530">
						<ele>683</ele>
						<time>2025-03-17T12:58:46Z</time>
					</trkpt>
					<trkpt lat="45.698200" lon="3.061430">
						<ele>675</ele>
						<time>2025-03-17T13:00:13Z</time>
					</trkpt>
					<trkpt lat="45.698160" lon="3.061690">
						<ele>672</ele>
						<time>2025-03-17T13:00:38Z</time>
					</trkpt>
					<trkpt lat="45.697860" lon="3.061580">
						<ele>671</ele>
						<time>2025-03-17T13:01:20Z</time>
					</trkpt>
					<trkpt lat="45.697750" lon="3.061830">
						<ele>668</ele>
						<time>2025-03-17T13:01:47Z</time>
					</trkpt>
					<trkpt lat="45.697640" lon="3.061960">
						<ele>666</ele>
						<time>2025-03-17T13:02:06Z</time>
					</trkpt>
					<trkpt lat="45.697570" lon="3.062190">
						<ele>663</ele>
						<time>2025-03-17T13:02:30Z</time>
					</trkpt>
					<trkpt lat="45.697490" lon="3.062240">
						<ele>663</ele>
						<time>2025-03-17T13:02:41Z</time>
					</trkpt>
					<trkpt lat="45.697460" lon="3.062360">
						<ele>661</ele>
						<time>2025-03-17T13:02:53Z</time>
					</trkpt>
					<trkpt lat="45.697430" lon="3.062600">
						<ele>659</ele>
						<time>2025-03-17T13:03:16Z</time>
					</trkpt>
					<trkpt lat="45.697330" lon="3.062800">
						<ele>656</ele>
						<time>2025-03-17T13:03:39Z</time>
					</trkpt>
					<trkpt lat="45.697350" lon="3.062870">
						<ele>656</ele>
						<time>2025-03-17T13:03:46Z</time>
					</trkpt>
					<trkpt lat="45.697370" lon="3.062970">
						<ele>656</ele>
						<time>2025-03-17T13:03:55Z</time>
					</trkpt>
					<trkpt lat="45.697380" lon="3.063160">
						<ele>656</ele>
						<time>2025-03-17T13:04:13Z</time>
					</trkpt>
					<trkpt lat="45.697370" lon="3.063200">
						<ele>655</ele>
						<time>2025-03-17T13:04:17Z</time>
					</trkpt>
					<trkpt lat="45.697340" lon="3.063350">
						<ele>654</ele>
						<time>2025-03-17T13:04:32Z</time>
					</trkpt>
					<trkpt lat="45.697260" lon="3.063480">
						<ele>651</ele>
						<time>2025-03-17T13:04:48Z</time>
					</trkpt>
					<trkpt lat="45.697100" lon="3.063640">
						<ele>648</ele>
						<time>2025-03-17T13:05:14Z</time>
					</trkpt>
					<trkpt lat="45.696920" lon="3.064080">
						<ele>642</ele>
						<time>2025-03-17T13:06:01Z</time>
					</trkpt>
					<trkpt lat="45.696660" lon="3.064190">
						<ele>639</ele>
						<time>2025-03-17T13:06:38Z</time>
					</trkpt>
					<trkpt lat="45.696440" lon="3.064490">
						<ele>629</ele>
						<time>2025-03-17T13:07:18Z</time>
					</trkpt>
					<trkpt lat="45.696230" lon="3.064480">
						<ele>624</ele>
						<time>2025-03-17T13:07:46Z</time>
					</trkpt>
					<trkpt lat="45.695950" lon="3.064410">
						<ele>617</ele>
						<time>2025-03-17T13:08:24Z</time>
					</trkpt>
					<trkpt lat="45.695510" lon="3.064430">
						<ele>610</ele>
						<time>2025-03-17T13:09:23Z</time>
					</trkpt>
					<trkpt lat="45.695420" lon="3.064610">
						<ele>608</ele>
						<time>2025-03-17T13:09:44Z</time>
					</trkpt>
					<trkpt lat="45.695310" lon="3.065090">
						<ele>605</ele>
						<time>2025-03-17T13:10:31Z</time>
					</trkpt>
					<trkpt lat="45.695050" lon="3.066340">
						<ele>599</ele>
						<time>2025-03-17T13:12:32Z</time>
					</trkpt>
					<trkpt lat="45.695020" lon="3.066470">
						<ele>598</ele>
						<time>2025-03-17T13:12:45Z</time>
					</trkpt>
					<trkpt lat="45.694440" lon="3.066370">
						<ele>598</ele>
						<time>2025-03-17T13:14:03Z</time>
					</trkpt>
					<trkpt lat="45.694370" lon="3.066340">
						<ele>598</ele>
						<time>2025-03-17T13:14:13Z</time>
					</trkpt>
					<trkpt lat="45.694320" lon="3.066320">
						<ele>598</ele>
						<time>2025-03-17T13:14:20Z</time>
					</trkpt>
					<trkpt lat="45.694290" lon="3.066290">
						<ele>598</ele>
						<time>2025-03-17T13:14:24Z</time>
					</trkpt>
					<trkpt lat="45.694250" lon="3.066200">
						<ele>598</ele>
						<time>2025-03-17T13:14:34Z</time>
					</trkpt>
					<trkpt lat="45.694180" lon="3.065900">
						<ele>600</ele>
						<time>2025-03-17T13:15:04Z</time>
					</trkpt>
					<trkpt lat="45.694180" lon="3.065900">
						<ele>600</ele>
						<time>2025-03-17T13:15:04Z</time>
					</trkpt>
					<trkpt lat="45.694140" lon="3.065800">
						<ele>601</ele>
						<time>2025-03-17T13:15:15Z</time>
					</trkpt>
					<trkpt lat="45.694130" lon="3.065730">
						<ele>601</ele>
						<time>2025-03-17T13:15:21Z</time>
					</trkpt>
					<trkpt lat="45.694140" lon="3.065670">
						<ele>602</ele>
						<time>2025-03-17T13:15:27Z</time>
					</trkpt>
					<trkpt lat="45.694170" lon="3.065540">
						<ele>602</ele>
						<time>2025-03-17T13:15:40Z</time>
					</trkpt>
					<trkpt lat="45.694180" lon="3.065460">
						<ele>603</ele>
						<time>2025-03-17T13:15:47Z</time>
					</trkpt>
					<trkpt lat="45.694170" lon="3.065360">
						<ele>603</ele>
						<time>2025-03-17T13:15:57Z</time>
					</trkpt>
					<trkpt lat="45.694140" lon="3.065200">
						<ele>605</ele>
						<time>2025-03-17T13:16:12Z</time>
					</trkpt>
					<trkpt lat="45.694100" lon="3.064590">
						<ele>612</ele>
						<time>2025-03-17T13:17:09Z</time>
					</trkpt>
					<trkpt lat="45.694050" lon="3.064330">
						<ele>617</ele>
						<time>2025-03-17T13:17:35Z</time>
					</trkpt>
					<trkpt lat="45.694030" lon="3.064040">
						<ele>620</ele>
						<time>2025-03-17T13:18:02Z</time>
					</trkpt>
					<trkpt lat="45.693980" lon="3.064070">
						<ele>622</ele>
						<time>2025-03-17T13:18:09Z</time>
					</trkpt>
					<trkpt lat="45.693710" lon="3.064660">
						<ele>624</ele>
						<time>2025-03-17T13:19:15Z</time>
					</trkpt>
					<trkpt lat="45.693340" lon="3.065000">
						<ele>630</ele>
						<time>2025-03-17T13:20:13Z</time>
					</trkpt>
					<trkpt lat="45.692720" lon="3.065130">
						<ele>645</ele>
						<time>2025-03-17T13:21:37Z</time>
					</trkpt>
					<trkpt lat="45.692210" lon="3.065050">
						<ele>660</ele>
						<time>2025-03-17T13:22:45Z</time>
					</trkpt>
					<trkpt lat="45.691820" lon="3.064930">
						<ele>671</ele>
						<time>2025-03-17T13:23:39Z</time>
					</trkpt>
					<trkpt lat="45.691230" lon="3.064980">
						<ele>678</ele>
						<time>2025-03-17T13:24:58Z</time>
					</trkpt>
					<trkpt lat="45.690980" lon="3.065220">
						<ele>677</ele>
						<time>2025-03-17T13:25:38Z</time>
					</trkpt>
					<trkpt lat="45.690910" lon="3.065320">
						<ele>677</ele>
						<time>2025-03-17T13:25:51Z</time>
					</trkpt>
					<trkpt lat="45.690640" lon="3.065740">
						<ele>675</ele>
						<time>2025-03-17T13:26:44Z</time>
					</trkpt>
					<trkpt lat="45.690470" lon="3.065830">
						<ele>676</ele>
						<time>2025-03-17T13:27:08Z</time>
					</trkpt>
					<trkpt lat="45.690110" lon="3.065870">
						<ele>681</ele>
						<time>2025-03-17T13:27:56Z</time>
					</trkpt>
					<trkpt lat="45.689930" lon="3.066220">
						<ele>682</ele>
						<time>2025-03-17T13:28:37Z</time>
					</trkpt>
					<trkpt lat="45.689840" lon="3.066290">
						<ele>683</ele>
						<time>2025-03-17T13:28:51Z</time>
					</trkpt>
					<trkpt lat="45.689430" lon="3.066740">
						<ele>688</ele>
						<time>2025-03-17T13:30:00Z</time>
					</trkpt>
					<trkpt lat="45.688710" lon="3.067940">
						<ele>696</ele>
						<time>2025-03-17T13:32:27Z</time>
					</trkpt>
					<trkpt lat="45.688370" lon="3.068720">
						<ele>698</ele>
						<time>2025-03-17T13:33:53Z</time>
					</trkpt>
					<trkpt lat="45.688070" lon="3.069500">
						<ele>702</ele>
						<time>2025-03-17T13:35:16Z</time>
					</trkpt>
					<trkpt lat="45.687750" lon="3.070080">
						<ele>708</ele>
						<time>2025-03-17T13:36:25Z</time>
					</trkpt>
					<trkpt lat="45.687460" lon="3.070540">
						<ele>713</ele>
						<time>2025-03-17T13:37:22Z</time>
					</trkpt>
					<trkpt lat="45.687100" lon="3.071240">
						<ele>712</ele>
						<time>2025-03-17T13:38:43Z</time>
					</trkpt>
					<trkpt lat="45.686940" lon="3.071440">
						<ele>712</ele>
						<time>2025-03-17T13:39:12Z</time>
					</trkpt>
					<trkpt lat="45.686510" lon="3.072220">
						<ele>711</ele>
						<time>2025-03-17T13:40:44Z</time>
					</trkpt>
					<trkpt lat="45.686430" lon="3.072480">
						<ele>709</ele>
						<time>2025-03-17T13:41:11Z</time>
					</trkpt>
					<trkpt lat="45.686220" lon="3.072890">
						<ele>706</ele>
						<time>2025-03-17T13:41:58Z</time>
					</trkpt>
					<trkpt lat="45.686080" lon="3.073070">
						<ele>707</ele>
						<time>2025-03-17T13:42:23Z</time>
					</trkpt>
					<trkpt lat="45.685970" lon="3.073240">
						<ele>707</ele>
						<time>2025-03-17T13:42:45Z</time>
					</trkpt>
					<trkpt lat="45.685860" lon="3.073870">
						<ele>705</ele>
						<time>2025-03-17T13:43:46Z</time>
					</trkpt>
					<trkpt lat="45.685810" lon="3.074270">
						<ele>704</ele>
						<time>2025-03-17T13:44:23Z</time>
					</trkpt>
					<trkpt lat="45.685820" lon="3.074770">
						<ele>701</ele>
						<time>2025-03-17T13:45:10Z</time>
					</trkpt>
					<trkpt lat="45.685840" lon="3.075170">
						<ele>698</ele>
						<time>2025-03-17T13:45:47Z</time>
					</trkpt>
					<trkpt lat="45.685770" lon="3.075420">
						<ele>699</ele>
						<time>2025-03-17T13:46:13Z</time>
					</trkpt>
					<trkpt lat="45.685600" lon="3.075620">
						<ele>701</ele>
						<time>2025-03-17T13:46:42Z</time>
					</trkpt>
					<trkpt lat="45.685260" lon="3.076280">
						<ele>708</ele>
						<time>2025-03-17T13:47:58Z</time>
					</trkpt>
					<trkpt lat="45.685070" lon="3.076380">
						<ele>712</ele>
						<time>2025-03-17T13:48:25Z</time>
					</trkpt>
					<trkpt lat="45.683980" lon="3.076090">
						<ele>721</ele>
						<time>2025-03-17T13:50:53Z</time>
					</trkpt>
					<trkpt lat="45.683860" lon="3.076040">
						<ele>721</ele>
						<time>2025-03-17T13:51:10Z</time>
					</trkpt>
					<trkpt lat="45.684060" lon="3.074650">
						<ele>723</ele>
						<time>2025-03-17T13:53:22Z</time>
					</trkpt>
					<trkpt lat="45.684120" lon="3.073840">
						<ele>725</ele>
						<time>2025-03-17T13:54:38Z</time>
					</trkpt>
					<trkpt lat="45.684140" lon="3.073410">
						<ele>727</ele>
						<time>2025-03-17T13:55:18Z</time>
					</trkpt>
					<trkpt lat="45.684100" lon="3.073110">
						<ele>727</ele>
						<time>2025-03-17T13:55:47Z</time>
					</trkpt>
					<trkpt lat="45.684050" lon="3.072730">
						<ele>728</ele>
						<time>2025-03-17T13:56:23Z</time>
					</trkpt>
					<trkpt lat="45.683940" lon="3.072380">
						<ele>728</ele>
						<time>2025-03-17T13:56:59Z</time>
					</trkpt>
					<trkpt lat="45.683870" lon="3.072130">
						<ele>728</ele>
						<time>2025-03-17T13:57:24Z</time>
					</trkpt>
					<trkpt lat="45.683880" lon="3.071790">
						<ele>729</ele>
						<time>2025-03-17T13:57:56Z</time>
					</trkpt>
					<trkpt lat="45.683880" lon="3.071290">
						<ele>731</ele>
						<time>2025-03-17T13:58:42Z</time>
					</trkpt>
					<trkpt lat="45.683880" lon="3.070960">
						<ele>732</ele>
						<time>2025-03-17T13:59:13Z</time>
					</trkpt>
					<trkpt lat="45.683900" lon="3.070660">
						<ele>733</ele>
						<time>2025-03-17T13:59:41Z</time>
					</trkpt>
					<trkpt lat="45.683890" lon="3.070010">
						<ele>734</ele>
						<time>2025-03-17T14:00:42Z</time>
					</trkpt>
					<trkpt lat="45.684040" lon="3.069510">
						<ele>736</ele>
						<time>2025-03-17T14:01:32Z</time>
					</trkpt>
					<trkpt lat="45.684200" lon="3.069070">
						<ele>738</ele>
						<time>2025-03-17T14:02:19Z</time>
					</trkpt>
					<trkpt lat="45.684300" lon="3.068890">
						<ele>739</ele>
						<time>2025-03-17T14:02:40Z</time>
					</trkpt>
					<trkpt lat="45.684470" lon="3.068110">
						<ele>742</ele>
						<time>2025-03-17T14:03:56Z</time>
					</trkpt>
					<trkpt lat="45.684550" lon="3.067950">
						<ele>743</ele>
						<time>2025-03-17T14:04:15Z</time>
					</trkpt>
					<trkpt lat="45.684580" lon="3.067830">
						<ele>743</ele>
						<time>2025-03-17T14:04:26Z</time>
					</trkpt>
					<trkpt lat="45.684740" lon="3.067690">
						<ele>744</ele>
						<time>2025-03-17T14:04:51Z</time>
					</trkpt>
					<trkpt lat="45.686920" lon="3.064320">
						<ele>750</ele>
						<time>2025-03-17T14:12:00Z</time>
					</trkpt>
					<trkpt lat="45.688020" lon="3.062630">
						<ele>743</ele>
						<time>2025-03-17T14:15:35Z</time>
					</trkpt>
					<trkpt lat="45.687720" lon="3.057960">
						<ele>742</ele>
						<time>2025-03-17T14:22:52Z</time>
					</trkpt>
					<trkpt lat="45.687770" lon="3.057090">
						<ele>741</ele>
						<time>2025-03-17T14:24:14Z</time>
					</trkpt>
					<trkpt lat="45.687850" lon="3.056830">
						<ele>739</ele>
						<time>2025-03-17T14:24:40Z</time>
					</trkpt>
					<trkpt lat="45.688230" lon="3.056150">
						<ele>729</ele>
						<time>2025-03-17T14:26:01Z</time>
					</trkpt>
					<trkpt lat="45.688300" lon="3.055880">
						<ele>727</ele>
						<time>2025-03-17T14:26:28Z</time>
					</trkpt>
					<trkpt lat="45.688310" lon="3.055700">
						<ele>725</ele>
						<time>2025-03-17T14:26:45Z</time>
					</trkpt>
					<trkpt lat="45.688280" lon="3.055510">
						<ele>725</ele>
						<time>2025-03-17T14:27:03Z</time>
					</trkpt>
					<trkpt lat="45.688160" lon="3.054840">
						<ele>720</ele>
						<time>2025-03-17T14:28:08Z</time>
					</trkpt>
					<trkpt lat="45.688170" lon="3.054470">
						<ele>716</ele>
						<time>2025-03-17T14:28:42Z</time>
					</trkpt>
					<trkpt lat="45.688240" lon="3.054240">
						<ele>713</ele>
						<time>2025-03-17T14:29:05Z</time>
					</trkpt>
					<trkpt lat="45.688950" lon="3.053440">
						<ele>703</ele>
						<time>2025-03-17T14:31:06Z</time>
					</trkpt>
					<trkpt lat="45.689170" lon="3.053090">
						<ele>697</ele>
						<time>2025-03-17T14:31:50Z</time>
					</trkpt>
					<trkpt lat="45.689300" lon="3.052590">
						<ele>689</ele>
						<time>2025-03-17T14:32:40Z</time>
					</trkpt>
					<trkpt lat="45.689610" lon="3.052120">
						<ele>683</ele>
						<time>2025-03-17T14:33:40Z</time>
					</trkpt>
					<trkpt lat="45.689710" lon="3.051790">
						<ele>680</ele>
						<time>2025-03-17T14:34:13Z</time>
					</trkpt>
					<trkpt lat="45.689750" lon="3.051710">
						<ele>679</ele>
						<time>2025-03-17T14:34:23Z</time>
					</trkpt>
					<trkpt lat="45.689820" lon="3.051660">
						<ele>678</ele>
						<time>2025-03-17T14:34:33Z</time>
					</trkpt>
					<trkpt lat="45.689880" lon="3.051680">
						<ele>677</ele>
						<time>2025-03-17T14:34:41Z</time>
					</trkpt>
					<trkpt lat="45.689940" lon="3.051770">
						<ele>677</ele>
						<time>2025-03-17T14:34:53Z</time>
					</trkpt>
					<trkpt lat="45.690180" lon="3.052400">
						<ele>676</ele>
						<time>2025-03-17T14:36:00Z</time>
					</trkpt>
					<trkpt lat="45.690490" lon="3.052780">
						<ele>671</ele>
						<time>2025-03-17T14:36:54Z</time>
					</trkpt>
					<trkpt lat="45.691050" lon="3.053070">
						<ele>660</ele>
						<time>2025-03-17T14:38:14Z</time>
					</trkpt>
					<trkpt lat="45.691340" lon="3.053780">
						<ele>659</ele>
						<time>2025-03-17T14:39:30Z</time>
					</trkpt>
					<trkpt lat="45.691430" lon="3.053960">
						<ele>658</ele>
						<time>2025-03-17T14:39:51Z</time>
					</trkpt>
					<trkpt lat="45.692090" lon="3.054630">
						<ele>651</ele>
						<time>2025-03-17T14:41:39Z</time>
					</trkpt>
					<trkpt lat="45.693010" lon="3.055860">
						<ele>642</ele>
						<time>2025-03-17T14:44:27Z</time>
					</trkpt>
					<trkpt lat="45.693170" lon="3.055950">
						<ele>638</ele>
						<time>2025-03-17T14:44:50Z</time>
					</trkpt>
					<trkpt lat="45.693470" lon="3.056010">
						<ele>634</ele>
						<time>2025-03-17T14:45:30Z</time>
					</trkpt>
					<trkpt lat="45.693500" lon="3.056000">
						<ele>634</ele>
						<time>2025-03-17T14:45:34Z</time>
					</trkpt>
					<trkpt lat="45.693580" lon="3.055960">
						<ele>634</ele>
						<time>2025-03-17T14:45:46Z</time>
					</trkpt>
					<trkpt lat="45.693650" lon="3.055920">
						<ele>634</ele>
						<time>2025-03-17T14:45:56Z</time>
					</trkpt>
					<trkpt lat="45.693720" lon="3.055890">
						<ele>634</ele>
						<time>2025-03-17T14:46:06Z</time>
					</trkpt>
					<trkpt lat="45.693820" lon="3.055900">
						<ele>634</ele>
						<time>2025-03-17T14:46:19Z</time>
					</trkpt>
					<trkpt lat="45.693900" lon="3.055920">
						<ele>634</ele>
						<time>2025-03-17T14:46:30Z</time>
					</trkpt>
					<trkpt lat="45.694250" lon="3.055570">
						<ele>637</ele>
						<time>2025-03-17T14:47:27Z</time>
					</trkpt>
					<trkpt lat="45.694460" lon="3.055530">
						<ele>639</ele>
						<time>2025-03-17T14:47:55Z</time>
					</trkpt>
					<trkpt lat="45.694570" lon="3.055550">
						<ele>641</ele>
						<time>2025-03-17T14:48:10Z</time>
					</trkpt>
					<trkpt lat="45.695040" lon="3.055590">
						<ele>647</ele>
						<time>2025-03-17T14:49:13Z</time>
					</trkpt>
					<trkpt lat="45.695290" lon="3.055570">
						<ele>649</ele>
						<time>2025-03-17T14:49:46Z</time>
					</trkpt>
					<trkpt lat="45.695560" lon="3.055450">
						<ele>650</ele>
						<time>2025-03-17T14:50:24Z</time>
					</trkpt>
					<trkpt lat="45.696950" lon="3.054640">
						<ele>659</ele>
						<time>2025-03-17T14:53:44Z</time>
					</trkpt>
					<trkpt lat="45.697710" lon="3.054190">
						<ele>659</ele>
						<time>2025-03-17T14:55:34Z</time>
					</trkpt>
					<trkpt lat="45.698010" lon="3.054040">
						<ele>662</ele>
						<time>2025-03-17T14:56:16Z</time>
					</trkpt>
					<trkpt lat="45.698120" lon="3.053890">
						<ele>662</ele>
						<time>2025-03-17T14:56:36Z</time>
					</trkpt>
					<trkpt lat="45.698300" lon="3.053260">
						<ele>661</ele>
						<time>2025-03-17T14:57:40Z</time>
					</trkpt>
					<trkpt lat="45.698460" lon="3.052760">
						<ele>663</ele>
						<time>2025-03-17T14:58:31Z</time>
					</trkpt>
					<trkpt lat="45.698610" lon="3.052280">
						<ele>666</ele>
						<time>2025-03-17T14:59:20Z</time>
					</trkpt>
					<trkpt lat="45.698710" lon="3.051530">
						<ele>670</ele>
						<time>2025-03-17T15:00:31Z</time>
					</trkpt>
					<trkpt lat="45.698820" lon="3.051390">
						<ele>673</ele>
						<time>2025-03-17T15:00:51Z</time>
					</trkpt>
					<trkpt lat="45.699400" lon="3.051620">
						<ele>676</ele>
						<time>2025-03-17T15:02:11Z</time>
					</trkpt>
					<trkpt lat="45.699790" lon="3.051860">
						<ele>679</ele>
						<time>2025-03-17T15:03:08Z</time>
					</trkpt>
					<trkpt lat="45.699830" lon="3.051980">
						<ele>679</ele>
						<time>2025-03-17T15:03:20Z</time>
					</trkpt>
					<trkpt lat="45.699870" lon="3.052110">
						<ele>680</ele>
						<time>2025-03-17T15:03:34Z</time>
					</trkpt>
					<trkpt lat="45.699870" lon="3.052360">
						<ele>679</ele>
						<time>2025-03-17T15:03:57Z</time>
					</trkpt>
					<trkpt lat="45.699870" lon="3.052460">
						<ele>679</ele>
						<time>2025-03-17T15:04:06Z</time>
					</trkpt>
					<trkpt lat="45.700030" lon="3.052450">
						<ele>680</ele>
						<time>2025-03-17T15:04:28Z</time>
					</trkpt>
					<trkpt lat="45.700430" lon="3.052530">
						<ele>685</ele>
						<time>2025-03-17T15:05:21Z</time>
					</trkpt>
					<trkpt lat="45.700810" lon="3.052820">
						<ele>692</ele>
						<time>2025-03-17T15:06:19Z</time>
					</trkpt>
					<trkpt lat="45.701300" lon="3.053140">
						<ele>695</ele>
						<time>2025-03-17T15:07:31Z</time>
					</trkpt>
					<trkpt lat="45.701880" lon="3.053220">
						<ele>696</ele>
						<time>2025-03-17T15:08:49Z</time>
					</trkpt>
					<trkpt lat="45.702390" lon="3.053340">
						<ele>698</ele>
						<time>2025-03-17T15:09:57Z</time>
					</trkpt>
					<trkpt lat="45.702660" lon="3.053450">
						<ele>702</ele>
						<time>2025-03-17T15:10:35Z</time>
					</trkpt>
					<trkpt lat="45.702740" lon="3.053480">
						<ele>704</ele>
						<time>2025-03-17T15:10:46Z</time>
					</trkpt>
					<trkpt lat="45.702900" lon="3.053490">
						<ele>706</ele>
						<time>2025-03-17T15:11:07Z</time>
					</trkpt>
					<trkpt lat="45.702990" lon="3.053500">
						<ele>707</ele>
						<time>2025-03-17T15:11:19Z</time>
					</trkpt>
					<trkpt lat="45.703240" lon="3.053430">
						<ele>709</ele>
						<time>2025-03-17T15:11:53Z</time>
					</trkpt>
					<trkpt lat="45.703520" lon="3.053370">
						<ele>712</ele>
						<time>2025-03-17T15:12:31Z</time>
					</trkpt>
					<trkpt lat="45.703720" lon="3.053330">
						<ele>714</ele>
						<time>2025-03-17T15:12:58Z</time>
					</trkpt>
					<trkpt lat="45.704000" lon="3.053240">
						<ele>717</ele>
						<time>2025-03-17T15:13:36Z</time>
					</trkpt>
					<trkpt lat="45.704330" lon="3.053130">
						<ele>722</ele>
						<time>2025-03-17T15:14:22Z</time>
					</trkpt>
					<trkpt lat="45.704670" lon="3.052920">
						<ele>727</ele>
						<time>2025-03-17T15:15:11Z</time>
					</trkpt>
					<trkpt lat="45.704700" lon="3.053460">
						<ele>728</ele>
						<time>2025-03-17T15:16:02Z</time>
					</trkpt>
					<trkpt lat="45.704710" lon="3.053710">
						<ele>728</ele>
						<time>2025-03-17T15:16:25Z</time>
					</trkpt>
					<trkpt lat="45.704720" lon="3.053930">
						<ele>727</ele>
						<time>2025-03-17T15:16:45Z</time>
					</trkpt>
					<trkpt lat="45.704740" lon="3.054340">
						<ele>726</ele>
						<time>2025-03-17T15:17:24Z</time>
					</trkpt>
					<trkpt lat="45.704750" lon="3.054480">
						<ele>726</ele>
						<time>2025-03-17T15:17:37Z</time>
					</trkpt>
					<trkpt lat="45.704760" lon="3.054660">
						<ele>725</ele>
						<time>2025-03-17T15:17:54Z</time>
					</trkpt>
					<trkpt lat="45.704770" lon="3.055010">
						<ele>724</ele>
						<time>2025-03-17T15:18:26Z</time>
					</trkpt>
					<trkpt lat="45.704940" lon="3.055250">
						<ele>723</ele>
						<time>2025-03-17T15:18:58Z</time>
					</trkpt>
					<trkpt lat="45.705180" lon="3.055210">
						<ele>724</ele>
						<time>2025-03-17T15:19:30Z</time>
					</trkpt>
					<trkpt lat="45.705080" lon="3.055320">
						<ele>722</ele>
						<time>2025-03-17T15:19:47Z</time>
					</trkpt>
					<trkpt lat="45.705040" lon="3.055480">
						<ele>721</ele>
						<time>2025-03-17T15:20:03Z</time>
					</trkpt>
					<trkpt lat="45.705000" lon="3.055820">
						<ele>718</ele>
						<time>2025-03-17T15:20:35Z</time>
					</trkpt>
					<trkpt lat="45.705060" lon="3.056290">
						<ele>716</ele>
						<time>2025-03-17T15:21:20Z</time>
					</trkpt>
					<trkpt lat="45.705100" lon="3.056430">
						<ele>716</ele>
						<time>2025-03-17T15:21:34Z</time>
					</trkpt>
					</trkseg>
				</trk>
			</gpx>